sensor_id;sensor_type;location;lat;lon;timestamp;pressure;altitude;pressure_sealevel;temperature
66604;BMP280;53460;39.612;8.822;2024-01-15T00:01:57;101619.44;;;12.78
66604;BMP280;53460;39.612;8.822;2024-01-15T00:04:22;101582.63;;;12.78
66604;BMP280;53460;39.612;8.822;2024-01-15T00:06:49;101537.94;;;12.81
66604;BMP280;53460;39.612;8.822;2024-01-15T00:09:15;101479.44;;;12.87
66604;BMP280;53460;39.612;8.822;2024-01-15T00:11:42;101436.97;;;12.93
66604;BMP280;53460;39.612;8.822;2024-01-15T00:14:08;101389.75;;;12.98
66604;BMP280;53460;39.612;8.822;2024-01-15T00:16:33;101349.03;;;12.89
66604;BMP280;53460;39.612;8.822;2024-01-15T00:18:59;101287.38;;;12.99
66604;BMP280;53460;39.612;8.822;2024-01-15T00:21:25;101214.31;;;12.87
66604;BMP280;53460;39.612;8.822;2024-01-15T00:23:50;101162.16;;;12.88
66604;BMP280;53460;39.612;8.822;2024-01-15T00:26:16;101101.59;;;12.83
66604;BMP280;53460;39.612;8.822;2024-01-15T00:28:42;101070.41;;;12.87
66604;BMP280;53460;39.612;8.822;2024-01-15T00:31:08;101049.09;;;12.78
66604;BMP280;53460;39.612;8.822;2024-01-15T00:33:33;101008.56;;;12.83
66604;BMP280;53460;39.612;8.822;2024-01-15T00:35:59;100974.22;;;12.80
66604;BMP280;53460;39.612;8.822;2024-01-15T00:38:25;100913.47;;;12.82
66604;BMP280;53460;39.612;8.822;2024-01-15T00:40:50;100880.50;;;12.80
66604;BMP280;53460;39.612;8.822;2024-01-15T00:43:16;100839.44;;;12.75
66604;BMP280;53460;39.612;8.822;2024-01-15T00:45:44;100791.00;;;12.71
66604;BMP280;53460;39.612;8.822;2024-01-15T00:48:10;100753.31;;;12.67
66604;BMP280;53460;39.612;8.822;2024-01-15T00:50:36;100726.56;;;12.67
66604;BMP280;53460;39.612;8.822;2024-01-15T00:53:02;100702.75;;;12.48
66604;BMP280;53460;39.612;8.822;2024-01-15T00:55:28;100655.47;;;12.52
66604;BMP280;53460;39.612;8.822;2024-01-15T00:57:54;100645.31;;;12.25
66604;BMP280;53460;39.612;8.822;2024-01-15T01:00:20;100652.75;;;12.15
66604;BMP280;53460;39.612;8.822;2024-01-15T01:02:46;100663.59;;;12.17
66604;BMP280;53460;39.612;8.822;2024-01-15T01:05:11;100659.28;;;12.24
66604;BMP280;53460;39.612;8.822;2024-01-15T01:07:37;100644.25;;;12.42
66604;BMP280;53460;39.612;8.822;2024-01-15T01:10:03;100636.75;;;12.52
66604;BMP280;53460;39.612;8.822;2024-01-15T01:12:29;100621.28;;;12.51
66604;BMP280;53460;39.612;8.822;2024-01-15T01:14:55;100601.91;;;12.39
66604;BMP280;53460;39.612;8.822;2024-01-15T01:17:21;100561.81;;;12.52
66604;BMP280;53460;39.612;8.822;2024-01-15T01:19:47;100544.88;;;12.48
66604;BMP280;53460;39.612;8.822;2024-01-15T01:22:13;100531.50;;;12.48
66604;BMP280;53460;39.612;8.822;2024-01-15T01:24:39;100507.03;;;12.53
66604;BMP280;53460;39.612;8.822;2024-01-15T01:27:04;100497.19;;;12.44
66604;BMP280;53460;39.612;8.822;2024-01-15T01:29:30;100487.31;;;12.47
66604;BMP280;53460;39.612;8.822;2024-01-15T01:31:55;100482.59;;;12.34
66604;BMP280;53460;39.612;8.822;2024-01-15T01:34:21;100486.16;;;12.38
66604;BMP280;53460;39.612;8.822;2024-01-15T01:36:47;100498.44;;;12.30
66604;BMP280;53460;39.612;8.822;2024-01-15T01:39:13;100490.19;;;12.25
66604;BMP280;53460;39.612;8.822;2024-01-15T01:41:39;100466.06;;;12.37
66604;BMP280;53460;39.612;8.822;2024-01-15T01:44:05;100486.94;;;12.27
66604;BMP280;53460;39.612;8.822;2024-01-15T01:46:31;100507.06;;;12.28
66604;BMP280;53460;39.612;8.822;2024-01-15T01:48:57;100513.13;;;12.29
66604;BMP280;53460;39.612;8.822;2024-01-15T01:51:24;100516.25;;;12.25
66604;BMP280;53460;39.612;8.822;2024-01-15T01:53:50;100522.41;;;12.27
66604;BMP280;53460;39.612;8.822;2024-01-15T01:56:17;100521.28;;;12.19
66604;BMP280;53460;39.612;8.822;2024-01-15T01:58:43;100516.03;;;12.21
66604;BMP280;53460;39.612;8.822;2024-01-15T02:01:10;100514.53;;;12.18
66604;BMP280;53460;39.612;8.822;2024-01-15T02:03:36;100505.00;;;12.15
66604;BMP280;53460;39.612;8.822;2024-01-15T02:06:02;100500.94;;;12.14
66604;BMP280;53460;39.612;8.822;2024-01-15T02:08:28;100489.31;;;12.09
66604;BMP280;53460;39.612;8.822;2024-01-15T02:10:54;100493.56;;;12.01
66604;BMP280;53460;39.612;8.822;2024-01-15T02:13:20;100486.03;;;11.97
66604;BMP280;53460;39.612;8.822;2024-01-15T02:15:46;100492.38;;;12.04
66604;BMP280;53460;39.612;8.822;2024-01-15T02:18:11;100489.31;;;12.09
66604;BMP280;53460;39.612;8.822;2024-01-15T02:20:37;100483.91;;;11.95
66604;BMP280;53460;39.612;8.822;2024-01-15T02:23:09;100480.47;;;11.81
66604;BMP280;53460;39.612;8.822;2024-01-15T02:25:37;100486.06;;;11.85
66604;BMP280;53460;39.612;8.822;2024-01-15T02:28:04;100490.03;;;11.73
66604;BMP280;53460;39.612;8.822;2024-01-15T02:30:31;100468.31;;;11.67
66604;BMP280;53460;39.612;8.822;2024-01-15T02:32:57;100456.47;;;11.70
66604;BMP280;53460;39.612;8.822;2024-01-15T02:35:22;100478.88;;;11.76
66604;BMP280;53460;39.612;8.822;2024-01-15T02:37:48;100471.28;;;11.84
66604;BMP280;53460;39.612;8.822;2024-01-15T02:40:13;100481.06;;;11.80
66604;BMP280;53460;39.612;8.822;2024-01-15T02:42:39;100494.69;;;11.72
66604;BMP280;53460;39.612;8.822;2024-01-15T02:45:05;100480.03;;;11.73
66604;BMP280;53460;39.612;8.822;2024-01-15T02:47:30;100482.56;;;11.83
66604;BMP280;53460;39.612;8.822;2024-01-15T02:49:56;100474.09;;;11.86
66604;BMP280;53460;39.612;8.822;2024-01-15T02:52:22;100471.28;;;11.84
66604;BMP280;53460;39.612;8.822;2024-01-15T02:54:47;100472.53;;;11.95
66604;BMP280;53460;39.612;8.822;2024-01-15T02:57:13;100464.34;;;11.79
66604;BMP280;53460;39.612;8.822;2024-01-15T02:59:38;100455.66;;;11.79
66604;BMP280;53460;39.612;8.822;2024-01-15T03:02:04;100455.06;;;11.69
66604;BMP280;53460;39.612;8.822;2024-01-15T03:04:30;100452.88;;;11.53
66604;BMP280;53460;39.612;8.822;2024-01-15T03:06:55;100455.31;;;11.61
66604;BMP280;53460;39.612;8.822;2024-01-15T03:09:21;100455.88;;;11.59
66604;BMP280;53460;39.612;8.822;2024-01-15T03:11:47;100468.94;;;11.42
66604;BMP280;53460;39.612;8.822;2024-01-15T03:14:14;100474.66;;;11.24
66604;BMP280;53460;39.612;8.822;2024-01-15T03:16:39;100477.66;;;11.30
66604;BMP280;53460;39.612;8.822;2024-01-15T03:19:05;100478.13;;;11.27
66604;BMP280;53460;39.612;8.822;2024-01-15T03:21:31;100470.13;;;11.39
66604;BMP280;53460;39.612;8.822;2024-01-15T03:23:56;100466.16;;;11.40
66604;BMP280;53460;39.612;8.822;2024-01-15T03:26:22;100461.28;;;11.48
66604;BMP280;53460;39.612;8.822;2024-01-15T03:28:47;100470.00;;;11.48
66604;BMP280;53460;39.612;8.822;2024-01-15T03:31:13;100461.75;;;11.44
66604;BMP280;53460;39.612;8.822;2024-01-15T03:33:39;100477.78;;;11.32
66604;BMP280;53460;39.612;8.822;2024-01-15T03:36:04;100493.59;;;11.17
66604;BMP280;53460;39.612;8.822;2024-01-15T03:38:30;100500.06;;;11.14
66604;BMP280;53460;39.612;8.822;2024-01-15T03:40:56;100509.13;;;11.09
66604;BMP280;53460;39.612;8.822;2024-01-15T03:43:22;100499.38;;;11.25
66604;BMP280;53460;39.612;8.822;2024-01-15T03:45:47;100518.41;;;11.19
66604;BMP280;53460;39.612;8.822;2024-01-15T03:48:13;100522.47;;;11.44
66604;BMP280;53460;39.612;8.822;2024-01-15T03:50:38;100524.13;;;11.49
66604;BMP280;53460;39.612;8.822;2024-01-15T03:53:04;100530.59;;;11.46
66604;BMP280;53460;39.612;8.822;2024-01-15T03:55:30;100546.28;;;11.40
66604;BMP280;53460;39.612;8.822;2024-01-15T03:57:55;100550.44;;;11.19
66604;BMP280;53460;39.612;8.822;2024-01-15T04:00:21;100551.16;;;11.31
66604;BMP280;53460;39.612;8.822;2024-01-15T04:02:47;100551.41;;;11.24
66604;BMP280;53460;39.612;8.822;2024-01-15T04:05:13;100553.13;;;11.19
66604;BMP280;53460;39.612;8.822;2024-01-15T04:07:38;100562.88;;;11.15
66604;BMP280;53460;39.612;8.822;2024-01-15T04:10:04;100570.88;;;11.15
66604;BMP280;53460;39.612;8.822;2024-01-15T04:12:31;100587.47;;;11.13
66604;BMP280;53460;39.612;8.822;2024-01-15T04:14:57;100605.25;;;11.20
66604;BMP280;53460;39.612;8.822;2024-01-15T04:17:22;100618.50;;;11.18
66604;BMP280;53460;39.612;8.822;2024-01-15T04:19:48;100634.03;;;11.10
66604;BMP280;53460;39.612;8.822;2024-01-15T04:22:14;100637.66;;;11.26
66604;BMP280;53460;39.612;8.822;2024-01-15T04:24:39;100671.56;;;11.24
66604;BMP280;53460;39.612;8.822;2024-01-15T04:27:06;100697.09;;;11.27
66604;BMP280;53460;39.612;8.822;2024-01-15T04:29:32;100720.63;;;11.19
66604;BMP280;53460;39.612;8.822;2024-01-15T04:31:57;100747.78;;;11.15
66604;BMP280;53460;39.612;8.822;2024-01-15T04:34:23;100775.00;;;11.02
66604;BMP280;53460;39.612;8.822;2024-01-15T04:36:49;100798.56;;;10.84
66604;BMP280;53460;39.612;8.822;2024-01-15T04:39:14;100803.47;;;10.88
66604;BMP280;53460;39.612;8.822;2024-01-15T04:41:40;100825.75;;;10.71
66604;BMP280;53460;39.612;8.822;2024-01-15T04:44:06;100826.50;;;10.93
66604;BMP280;53460;39.612;8.822;2024-01-15T04:46:31;100834.66;;;10.85
66604;BMP280;53460;39.612;8.822;2024-01-15T04:48:57;100836.50;;;10.83
66604;BMP280;53460;39.612;8.822;2024-01-15T04:51:22;100839.88;;;10.83
66604;BMP280;53460;39.612;8.822;2024-01-15T04:53:48;100857.59;;;10.79
66604;BMP280;53460;39.612;8.822;2024-01-15T04:56:14;100863.28;;;10.94
66604;BMP280;53460;39.612;8.822;2024-01-15T04:58:39;100882.69;;;10.95
66604;BMP280;53460;39.612;8.822;2024-01-15T05:01:05;100895.22;;;10.83
66604;BMP280;53460;39.612;8.822;2024-01-15T05:03:31;100914.13;;;10.96
66604;BMP280;53460;39.612;8.822;2024-01-15T05:05:56;100920.84;;;10.97
66604;BMP280;53460;39.612;8.822;2024-01-15T05:08:22;100937.03;;;10.99
66604;BMP280;53460;39.612;8.822;2024-01-15T05:10:47;100937.41;;;11.06
66604;BMP280;53460;39.612;8.822;2024-01-15T05:13:13;100956.94;;;11.08
66604;BMP280;53460;39.612;8.822;2024-01-15T05:15:39;100970.41;;;11.10
66604;BMP280;53460;39.612;8.822;2024-01-15T05:18:05;100968.50;;;11.01
66604;BMP280;53460;39.612;8.822;2024-01-15T05:20:31;100969.47;;;11.06
66604;BMP280;53460;39.612;8.822;2024-01-15T05:22:57;100979.19;;;11.01
66604;BMP280;53460;39.612;8.822;2024-01-15T05:25:22;100988.06;;;10.94
66604;BMP280;53460;39.612;8.822;2024-01-15T05:27:48;100986.03;;;11.04
66604;BMP280;53460;39.612;8.822;2024-01-15T05:30:14;100991.22;;;11.12
66604;BMP280;53460;39.612;8.822;2024-01-15T05:32:40;100985.69;;;11.19
66604;BMP280;53460;39.612;8.822;2024-01-15T05:35:06;100995.41;;;11.24
66604;BMP280;53460;39.612;8.822;2024-01-15T05:37:31;101011.19;;;11.11
66604;BMP280;53460;39.612;8.822;2024-01-15T05:39:57;101007.66;;;11.18
66604;BMP280;53460;39.612;8.822;2024-01-15T05:42:22;101005.53;;;11.16
66604;BMP280;53460;39.612;8.822;2024-01-15T05:44:48;101002.53;;;11.31
66604;BMP280;53460;39.612;8.822;2024-01-15T05:47:14;101000.94;;;11.38
66604;BMP280;53460;39.612;8.822;2024-01-15T05:49:39;100996.97;;;11.18
66604;BMP280;53460;39.612;8.822;2024-01-15T05:52:05;100989.66;;;11.18
66604;BMP280;53460;39.612;8.822;2024-01-15T05:54:31;100984.75;;;11.15
66604;BMP280;53460;39.612;8.822;2024-01-15T05:56:57;100996.50;;;11.31
66604;BMP280;53460;39.612;8.822;2024-01-15T05:59:23;100994.03;;;11.45
66604;BMP280;53460;39.612;8.822;2024-01-15T06:01:49;100987.81;;;11.52
66604;BMP280;53460;39.612;8.822;2024-01-15T06:04:14;100971.78;;;11.52
66604;BMP280;53460;39.612;8.822;2024-01-15T06:06:40;100978.28;;;11.49
66604;BMP280;53460;39.612;8.822;2024-01-15T06:09:05;100966.38;;;11.61
66604;BMP280;53460;39.612;8.822;2024-01-15T06:11:31;100957.09;;;11.62
66604;BMP280;53460;39.612;8.822;2024-01-15T06:13:57;100946.03;;;11.56
66604;BMP280;53460;39.612;8.822;2024-01-15T06:16:23;100939.50;;;11.59
66604;BMP280;53460;39.612;8.822;2024-01-15T06:18:49;100934.00;;;11.67
66604;BMP280;53460;39.612;8.822;2024-01-15T06:21:16;100926.63;;;11.56
66604;BMP280;53460;39.612;8.822;2024-01-15T06:23:42;100928.97;;;11.61
66604;BMP280;53460;39.612;8.822;2024-01-15T06:26:07;100918.63;;;11.56
66604;BMP280;53460;39.612;8.822;2024-01-15T06:28:33;100929.50;;;11.48
66604;BMP280;53460;39.612;8.822;2024-01-15T06:30:59;100923.06;;;11.63
66604;BMP280;53460;39.612;8.822;2024-01-15T06:33:24;100924.00;;;11.68
66604;BMP280;53460;39.612;8.822;2024-01-15T06:35:50;100923.69;;;11.73
66604;BMP280;53460;39.612;8.822;2024-01-15T06:38:16;100915.28;;;11.67
66604;BMP280;53460;39.612;8.822;2024-01-15T06:40:42;100913.25;;;11.77
66604;BMP280;53460;39.612;8.822;2024-01-15T06:43:14;100913.00;;;11.73
66604;BMP280;53460;39.612;8.822;2024-01-15T06:45:41;100889.75;;;11.76
66604;BMP280;53460;39.612;8.822;2024-01-15T06:48:07;100884.91;;;11.84
66604;BMP280;53460;39.612;8.822;2024-01-15T06:50:33;100898.94;;;11.73
66604;BMP280;53460;39.612;8.822;2024-01-15T06:52:58;100894.34;;;11.97
66604;BMP280;53460;39.612;8.822;2024-01-15T06:55:24;100898.44;;;11.98
66604;BMP280;53460;39.612;8.822;2024-01-15T06:57:51;100910.91;;;12.05
66604;BMP280;53460;39.612;8.822;2024-01-15T07:00:18;100922.09;;;12.13
66604;BMP280;53460;39.612;8.822;2024-01-15T07:02:45;100935.91;;;12.09
66604;BMP280;53460;39.612;8.822;2024-01-15T07:05:11;100944.56;;;12.19
66604;BMP280;53460;39.612;8.822;2024-01-15T07:07:37;100934.84;;;12.36
66604;BMP280;53460;39.612;8.822;2024-01-15T07:10:03;100947.16;;;12.52
66604;BMP280;53460;39.612;8.822;2024-01-15T07:12:29;100956.16;;;12.57
66604;BMP280;53460;39.612;8.822;2024-01-15T07:14:56;100958.38;;;12.61
66604;BMP280;53460;39.612;8.822;2024-01-15T07:17:22;100965.91;;;12.52
66604;BMP280;53460;39.612;8.822;2024-01-15T07:19:47;100969.44;;;12.55
66604;BMP280;53460;39.612;8.822;2024-01-15T07:22:14;100964.66;;;12.53
66604;BMP280;53460;39.612;8.822;2024-01-15T07:24:40;100967.09;;;12.61
66604;BMP280;53460;39.612;8.822;2024-01-15T07:27:06;100967.66;;;12.71
66604;BMP280;53460;39.612;8.822;2024-01-15T07:29:31;100972.00;;;12.76
66604;BMP280;53460;39.612;8.822;2024-01-15T07:32:03;100972.38;;;12.82
66604;BMP280;53460;39.612;8.822;2024-01-15T07:34:29;100985.19;;;12.84
66604;BMP280;53460;39.612;8.822;2024-01-15T07:36:55;100992.31;;;13.03
66604;BMP280;53460;39.612;8.822;2024-01-15T07:39:20;101027.69;;;13.01
66604;BMP280;53460;39.612;8.822;2024-01-15T07:41:48;101082.09;;;13.15
66604;BMP280;53460;39.612;8.822;2024-01-15T07:44:13;101115.78;;;13.30
66604;BMP280;53460;39.612;8.822;2024-01-15T07:46:43;101151.56;;;13.46
66604;BMP280;53460;39.612;8.822;2024-01-15T07:49:09;101208.91;;;13.76
66604;BMP280;53460;39.612;8.822;2024-01-15T07:51:34;101260.38;;;13.96
66604;BMP280;53460;39.612;8.822;2024-01-15T07:54:00;101325.47;;;14.43
66604;BMP280;53460;39.612;8.822;2024-01-15T07:56:26;101402.00;;;15.03
66604;BMP280;53460;39.612;8.822;2024-01-15T07:58:53;101504.50;;;15.69
66604;BMP280;53460;39.612;8.822;2024-01-15T08:01:18;101666.59;;;18.63
66604;BMP280;53460;39.612;8.822;2024-01-15T08:03:44;101874.97;;;16.95
66604;BMP280;53460;39.612;8.822;2024-01-15T08:06:10;101832.28;;;15.73
66604;BMP280;53460;39.612;8.822;2024-01-15T08:08:36;101816.78;;;15.95
66604;BMP280;53460;39.612;8.822;2024-01-15T08:11:02;101764.56;;;15.76
66604;BMP280;53460;39.612;8.822;2024-01-15T08:13:28;101735.75;;;15.44
66604;BMP280;53460;39.612;8.822;2024-01-15T08:15:54;101753.56;;;15.16
66604;BMP280;53460;39.612;8.822;2024-01-15T08:18:19;101796.41;;;15.02
66604;BMP280;53460;39.612;8.822;2024-01-15T08:20:47;101816.41;;;14.78
66604;BMP280;53460;39.612;8.822;2024-01-15T08:23:13;101861.44;;;14.89
66604;BMP280;53460;39.612;8.822;2024-01-15T08:25:38;101883.00;;;15.22
66604;BMP280;53460;39.612;8.822;2024-01-15T08:28:04;101880.25;;;15.32
66604;BMP280;53460;39.612;8.822;2024-01-15T08:30:30;101869.31;;;15.18
66604;BMP280;53460;39.612;8.822;2024-01-15T08:32:56;101852.59;;;14.77
66604;BMP280;53460;39.612;8.822;2024-01-15T08:35:22;101849.06;;;14.74
66604;BMP280;53460;39.612;8.822;2024-01-15T08:37:49;101843.28;;;14.68
66604;BMP280;53460;39.612;8.822;2024-01-15T08:40:15;101865.34;;;14.76
66604;BMP280;53460;39.612;8.822;2024-01-15T08:42:41;101854.03;;;14.78
66604;BMP280;53460;39.612;8.822;2024-01-15T08:45:09;101831.25;;;14.79
66604;BMP280;53460;39.612;8.822;2024-01-15T08:47:34;101826.63;;;14.91
66604;BMP280;53460;39.612;8.822;2024-01-15T08:50:00;101809.16;;;15.02
66604;BMP280;53460;39.612;8.822;2024-01-15T08:52:26;101810.13;;;15.39
66604;BMP280;53460;39.612;8.822;2024-01-15T08:54:52;101836.28;;;15.83
66604;BMP280;53460;39.612;8.822;2024-01-15T08:57:17;101883.50;;;16.20
66604;BMP280;53460;39.612;8.822;2024-01-15T08:59:43;101928.88;;;17.69
66604;BMP280;53460;39.612;8.822;2024-01-15T09:02:08;101927.78;;;16.51
66604;BMP280;53460;39.612;8.822;2024-01-15T09:04:34;101920.59;;;16.79
66604;BMP280;53460;39.612;8.822;2024-01-15T09:07:00;101891.66;;;15.98
66604;BMP280;53460;39.612;8.822;2024-01-15T09:09:25;101923.13;;;21.09
66604;BMP280;53460;39.612;8.822;2024-01-15T09:11:51;101323.75;;;17.91
66604;BMP280;53460;39.612;8.822;2024-01-15T09:14:17;101149.25;;;17.81
66604;BMP280;53460;39.612;8.822;2024-01-15T09:16:43;100992.06;;;16.96
66604;BMP280;53460;39.612;8.822;2024-01-15T09:19:08;100960.97;;;16.77
66604;BMP280;53460;39.612;8.822;2024-01-15T09:21:34;100979.03;;;16.26
66604;BMP280;53460;39.612;8.822;2024-01-15T09:24:00;101001.50;;;16.16
66604;BMP280;53460;39.612;8.822;2024-01-15T09:26:25;101032.09;;;16.23
66604;BMP280;53460;39.612;8.822;2024-01-15T09:28:51;100972.31;;;16.74
66604;BMP280;53460;39.612;8.822;2024-01-15T09:31:17;99633.00;;;24.61
66604;BMP280;53460;39.612;8.822;2024-01-15T09:33:45;97021.88;;;25.70
66604;BMP280;53460;39.612;8.822;2024-01-15T09:36:10;97597.53;;;25.66
66604;BMP280;53460;39.612;8.822;2024-01-15T09:38:36;98799.59;;;26.34
66604;BMP280;53460;39.612;8.822;2024-01-15T09:41:02;98877.56;;;20.44
66604;BMP280;53460;39.612;8.822;2024-01-15T09:43:27;98925.34;;;23.43
66604;BMP280;53460;39.612;8.822;2024-01-15T09:45:54;98691.09;;;22.62
66604;BMP280;53460;39.612;8.822;2024-01-15T09:48:20;98167.72;;;19.02
66604;BMP280;53460;39.612;8.822;2024-01-15T09:50:46;98192.84;;;27.00
66604;BMP280;53460;39.612;8.822;2024-01-15T09:53:11;98842.56;;;25.78
66604;BMP280;53460;39.612;8.822;2024-01-15T09:55:39;99173.06;;;27.14
66604;BMP280;53460;39.612;8.822;2024-01-15T09:58:05;98848.25;;;25.70
66604;BMP280;53460;39.612;8.822;2024-01-15T10:00:31;98782.41;;;21.75
66604;BMP280;53460;39.612;8.822;2024-01-15T10:02:58;99001.47;;;22.75
66604;BMP280;53460;39.612;8.822;2024-01-15T10:05:26;98573.78;;;19.68
66604;BMP280;53460;39.612;8.822;2024-01-15T10:07:54;97659.97;;;17.54
66604;BMP280;53460;39.612;8.822;2024-01-15T10:10:20;96607.03;;;17.13
66604;BMP280;53460;39.612;8.822;2024-01-15T10:12:47;95925.34;;;16.96
66604;BMP280;53460;39.612;8.822;2024-01-15T10:15:13;96089.41;;;17.48
66604;BMP280;53460;39.612;8.822;2024-01-15T10:17:39;96585.28;;;20.32
66604;BMP280;53460;39.612;8.822;2024-01-15T10:20:11;96231.28;;;23.91
66604;BMP280;53460;39.612;8.822;2024-01-15T10:22:45;96261.63;;;22.68
66604;BMP280;53460;39.612;8.822;2024-01-15T10:25:14;96255.16;;;22.40
66604;BMP280;53460;39.612;8.822;2024-01-15T10:27:43;98787.75;;;25.82
66604;BMP280;53460;39.612;8.822;2024-01-15T10:30:12;98922.66;;;25.49
66604;BMP280;53460;39.612;8.822;2024-01-15T10:32:39;98656.91;;;20.39
66604;BMP280;53460;39.612;8.822;2024-01-15T10:35:07;98492.47;;;19.23
66604;BMP280;53460;39.612;8.822;2024-01-15T10:37:33;98407.78;;;21.11
66604;BMP280;53460;39.612;8.822;2024-01-15T10:40:02;98363.09;;;20.36
66604;BMP280;53460;39.612;8.822;2024-01-15T10:42:30;98917.84;;;24.03
66604;BMP280;53460;39.612;8.822;2024-01-15T10:44:56;98996.66;;;21.89
66604;BMP280;53460;39.612;8.822;2024-01-15T10:47:22;99248.81;;;27.41
66604;BMP280;53460;39.612;8.822;2024-01-15T10:49:48;99408.50;;;27.17
66604;BMP280;53460;39.612;8.822;2024-01-15T10:52:15;99404.91;;;27.66
66604;BMP280;53460;39.612;8.822;2024-01-15T10:54:41;99226.63;;;24.59
66604;BMP280;53460;39.612;8.822;2024-01-15T10:57:08;99063.28;;;21.19
66604;BMP280;53460;39.612;8.822;2024-01-15T10:59:36;98684.16;;;18.43
66604;BMP280;53460;39.612;8.822;2024-01-15T11:02:01;98210.84;;;19.10
66604;BMP280;53460;39.612;8.822;2024-01-15T11:04:27;97872.09;;;18.52
66604;BMP280;53460;39.612;8.822;2024-01-15T11:06:54;96881.63;;;17.38
66604;BMP280;53460;39.612;8.822;2024-01-15T11:09:21;96118.84;;;17.35
66604;BMP280;53460;39.612;8.822;2024-01-15T11:11:47;96157.34;;;17.99
66604;BMP280;53460;39.612;8.822;2024-01-15T11:15:00;96389.16;;;17.63
66604;BMP280;53460;39.612;8.822;2024-01-15T11:17:20;96517.84;;;17.63
66604;BMP280;53460;39.612;8.822;2024-01-15T11:19:50;96597.78;;;18.08
66604;BMP280;53460;39.612;8.822;2024-01-15T11:25:19;96638.56;;;17.79
66604;BMP280;53460;39.612;8.822;2024-01-15T11:27:47;96695.56;;;17.67
66604;BMP280;53460;39.612;8.822;2024-01-15T11:30:13;96684.91;;;17.42
66604;BMP280;53460;39.612;8.822;2024-01-15T11:32:40;96664.50;;;17.88
66604;BMP280;53460;39.612;8.822;2024-01-15T11:35:12;96702.66;;;17.76
66604;BMP280;53460;39.612;8.822;2024-01-15T11:40:36;96759.75;;;18.23
66604;BMP280;53460;39.612;8.822;2024-01-15T11:43:03;96687.78;;;18.92
66604;BMP280;53460;39.612;8.822;2024-01-15T11:45:30;96623.34;;;18.46
66604;BMP280;53460;39.612;8.822;2024-01-15T11:48:13;96623.69;;;18.74
66604;BMP280;53460;39.612;8.822;2024-01-15T11:50:45;96540.03;;;19.39
66604;BMP280;53460;39.612;8.822;2024-01-15T11:55:51;96403.97;;;19.15
66604;BMP280;53460;39.612;8.822;2024-01-15T11:58:16;96375.63;;;19.14
66604;BMP280;53460;39.612;8.822;2024-01-15T12:00:48;96400.09;;;19.26
66604;BMP280;53460;39.612;8.822;2024-01-15T12:03:20;96337.72;;;20.04
66604;BMP280;53460;39.612;8.822;2024-01-15T12:05:46;96239.28;;;19.42
66604;BMP280;53460;39.612;8.822;2024-01-15T12:08:12;96215.25;;;18.77
66604;BMP280;53460;39.612;8.822;2024-01-15T12:10:38;96214.16;;;18.87
66604;BMP280;53460;39.612;8.822;2024-01-15T12:13:12;96238.94;;;19.06
66604;BMP280;53460;39.612;8.822;2024-01-15T12:15:39;96226.53;;;18.82
66604;BMP280;53460;39.612;8.822;2024-01-15T12:18:09;96181.38;;;18.95
66604;BMP280;53460;39.612;8.822;2024-01-15T12:20:35;96145.00;;;18.94
66604;BMP280;53460;39.612;8.822;2024-01-15T12:23:03;96139.38;;;18.25
66604;BMP280;53460;39.612;8.822;2024-01-15T12:25:30;96098.25;;;18.98
66604;BMP280;53460;39.612;8.822;2024-01-15T12:27:56;96150.53;;;17.85
66604;BMP280;53460;39.612;8.822;2024-01-15T12:30:22;96209.97;;;17.81
66604;BMP280;53460;39.612;8.822;2024-01-15T12:32:48;96332.78;;;18.26
66604;BMP280;53460;39.612;8.822;2024-01-15T12:35:14;96383.19;;;17.96
66604;BMP280;53460;39.612;8.822;2024-01-15T12:37:42;96315.38;;;19.32
66604;BMP280;53460;39.612;8.822;2024-01-15T12:40:09;96258.31;;;19.11
66604;BMP280;53460;39.612;8.822;2024-01-15T12:42:39;96177.94;;;18.82
66604;BMP280;53460;39.612;8.822;2024-01-15T12:45:12;96089.91;;;18.74
66604;BMP280;53460;39.612;8.822;2024-01-15T12:47:39;96089.16;;;18.17
66604;BMP280;53460;39.612;8.822;2024-01-15T12:50:11;96117.69;;;17.64
66604;BMP280;53460;39.612;8.822;2024-01-15T12:52:40;96144.69;;;17.78
66604;BMP280;53460;39.612;8.822;2024-01-15T12:55:07;96121.91;;;18.38
66604;BMP280;53460;39.612;8.822;2024-01-15T12:57:34;96113.75;;;18.09
66604;BMP280;53460;39.612;8.822;2024-01-15T13:00:00;96115.94;;;17.90
66604;BMP280;53460;39.612;8.822;2024-01-15T13:02:25;96105.13;;;18.21
66604;BMP280;53460;39.612;8.822;2024-01-15T13:04:51;96075.94;;;18.11
66604;BMP280;53460;39.612;8.822;2024-01-15T13:07:17;96021.53;;;18.50
66604;BMP280;53460;39.612;8.822;2024-01-15T13:09:43;95988.41;;;19.21
66604;BMP280;53460;39.612;8.822;2024-01-15T13:12:08;95976.31;;;18.66
66604;BMP280;53460;39.612;8.822;2024-01-15T13:14:34;95945.69;;;19.11
66604;BMP280;53460;39.612;8.822;2024-01-15T13:17:00;95924.56;;;19.54
66604;BMP280;53460;39.612;8.822;2024-01-15T13:19:26;96102.19;;;18.71
66604;BMP280;53460;39.612;8.822;2024-01-15T13:21:53;96117.16;;;18.68
66604;BMP280;53460;39.612;8.822;2024-01-15T13:24:19;96107.75;;;18.23
66604;BMP280;53460;39.612;8.822;2024-01-15T13:26:44;96099.22;;;18.48
66604;BMP280;53460;39.612;8.822;2024-01-15T13:29:11;96066.94;;;18.61
66604;BMP280;53460;39.612;8.822;2024-01-15T13:31:36;96091.41;;;18.42
66604;BMP280;53460;39.612;8.822;2024-01-15T13:34:03;96102.50;;;17.73
66604;BMP280;53460;39.612;8.822;2024-01-15T13:36:29;96094.81;;;17.79
66604;BMP280;53460;39.612;8.822;2024-01-15T13:38:54;96103.44;;;17.82
66604;BMP280;53460;39.612;8.822;2024-01-15T13:41:21;96132.16;;;17.73
66604;BMP280;53460;39.612;8.822;2024-01-15T13:43:54;96132.63;;;18.09
66604;BMP280;53460;39.612;8.822;2024-01-15T13:46:26;96169.56;;;19.17
66604;BMP280;53460;39.612;8.822;2024-01-15T13:48:52;96250.31;;;18.48
66604;BMP280;53460;39.612;8.822;2024-01-15T13:51:18;96310.25;;;18.00
66604;BMP280;53460;39.612;8.822;2024-01-15T13:53:44;96278.03;;;17.63
66604;BMP280;53460;39.612;8.822;2024-01-15T13:56:10;96187.75;;;17.30
66604;BMP280;53460;39.612;8.822;2024-01-15T13:58:36;96106.63;;;17.55
66604;BMP280;53460;39.612;8.822;2024-01-15T14:01:02;96084.44;;;17.38
66604;BMP280;53460;39.612;8.822;2024-01-15T14:03:31;96084.19;;;17.44
66604;BMP280;53460;39.612;8.822;2024-01-15T14:05:57;96074.56;;;17.80